createdAt,value
2023-04-17T00:01:41.542Z,4.00
2023-04-17T00:04:11.417Z,5.00
2023-04-17T00:06:43.600Z,4.30
2023-04-17T00:09:12.988Z,4.30
2023-04-17T00:11:41.354Z,6.20
2023-04-17T00:14:09.466Z,5.50
2023-04-17T00:16:37.754Z,5.40
2023-04-17T00:19:06.171Z,5.60
2023-04-17T00:21:34.269Z,6.50
2023-04-17T00:24:02.443Z,6.30
2023-04-17T00:26:32.471Z,7.20
2023-04-17T00:29:03.912Z,7.20
2023-04-17T00:31:31.991Z,7.30
2023-04-17T00:34:01.580Z,6.30
2023-04-17T00:36:33.077Z,6.30
2023-04-17T00:39:01.440Z,6.30
2023-04-17T00:41:29.568Z,10.00
2023-04-17T00:43:57.650Z,7.70
2023-04-17T00:46:26.093Z,6.30
2023-04-17T00:48:55.219Z,7.70
2023-04-17T00:51:23.736Z,6.90
2023-04-17T00:53:52.755Z,6.60
2023-04-17T00:56:21.611Z,6.20
2023-04-17T00:58:51.131Z,6.40
2023-04-17T01:01:19.547Z,6.70
2023-04-17T01:03:48.919Z,6.40
2023-04-17T01:06:17.661Z,7.00
2023-04-17T01:08:46.161Z,8.60
2023-04-17T01:11:14.449Z,6.20
2023-04-17T01:13:50.794Z,7.80
2023-04-17T01:16:19.855Z,6.40
2023-04-17T01:18:51.671Z,7.80
2023-04-17T01:21:20.094Z,5.70
2023-04-17T01:23:54.143Z,5.30
2023-04-17T01:26:27.816Z,7.00
2023-04-17T01:28:58.586Z,5.40
2023-04-17T01:31:30.268Z,6.60
2023-04-17T01:34:01.582Z,6.20
2023-04-17T01:36:30.023Z,6.70
2023-04-17T01:38:58.088Z,6.30
2023-04-17T01:41:26.639Z,6.70
2023-04-17T01:43:54.765Z,7.10
2023-04-17T01:46:22.864Z,6.50
2023-04-17T01:48:51.076Z,6.50
2023-04-17T01:51:19.615Z,6.70
2023-04-17T01:53:47.648Z,6.80
2023-04-17T01:56:15.833Z,8.10
2023-04-17T01:58:44.230Z,7.20
2023-04-17T02:01:12.388Z,7.50
2023-04-17T02:03:40.584Z,7.60
2023-04-17T02:06:10.063Z,8.70
2023-04-17T02:08:38.345Z,7.70
2023-04-17T02:11:06.449Z,8.00
2023-04-17T02:13:34.800Z,7.00
2023-04-17T02:16:04.649Z,7.30
2023-04-17T02:18:32.734Z,7.10
2023-04-17T02:21:01.587Z,6.10
2023-04-17T02:23:29.779Z,7.50
2023-04-17T02:25:58.023Z,7.00
2023-04-17T02:28:26.354Z,7.00
2023-04-17T02:30:54.611Z,7.00
2023-04-17T02:33:22.973Z,6.30
2023-04-17T02:35:51.656Z,7.60
2023-04-17T02:38:23.373Z,8.00
2023-04-17T02:40:51.773Z,7.90
2023-04-17T02:43:19.905Z,9.10
2023-04-17T02:45:48.042Z,8.50
2023-04-17T02:48:16.499Z,8.60
2023-04-17T02:50:44.921Z,10.00
2023-04-17T02:53:18.185Z,9.10
2023-04-17T02:55:46.297Z,9.40
2023-04-17T02:58:15.105Z,14.20
2023-04-17T03:00:43.219Z,10.10
2023-04-17T03:03:15.150Z,10.10
2023-04-17T03:05:43.474Z,11.20
2023-04-17T03:08:11.889Z,11.60
2023-04-17T03:10:46.611Z,10.80
2023-04-17T03:13:14.755Z,9.80
2023-04-17T03:15:42.834Z,10.90
2023-04-17T03:18:10.899Z,11.10
2023-04-17T03:20:39.148Z,10.30
2023-04-17T03:23:07.299Z,10.00
2023-04-17T03:25:35.876Z,11.20
2023-04-17T03:28:04.188Z,12.10
2023-04-17T03:30:33.941Z,11.70
2023-04-17T03:33:05.194Z,10.90
2023-04-17T03:35:33.355Z,10.70
2023-04-17T03:38:01.993Z,13.80
2023-04-17T03:40:31.417Z,8.60
2023-04-17T03:43:01.488Z,11.10
2023-04-17T03:45:31.254Z,9.40
2023-04-17T03:47:59.504Z,11.00
2023-04-17T03:50:27.797Z,11.20
2023-04-17T03:52:57.538Z,10.30
2023-04-17T03:55:27.661Z,10.60
2023-04-17T03:57:56.068Z,11.40
2023-04-17T04:00:26.118Z,10.60
2023-04-17T04:02:56.962Z,11.80
2023-04-17T04:05:28.715Z,13.80
2023-04-17T04:07:57.681Z,11.70
2023-04-17T04:10:32.652Z,12.00
2023-04-17T04:13:01.364Z,13.60
2023-04-17T04:15:30.121Z,14.10
2023-04-17T04:18:01.114Z,14.90
2023-04-17T04:20:29.584Z,14.40
2023-04-17T04:23:06.809Z,18.40
2023-04-17T04:25:36.708Z,14.40
2023-04-17T04:28:17.866Z,14.70
2023-04-17T04:30:50.690Z,18.00
2023-04-17T04:33:20.591Z,16.40
2023-04-17T04:35:49.439Z,18.60
2023-04-17T04:38:17.878Z,17.60
2023-04-17T04:40:52.482Z,20.60
2023-04-17T04:43:22.610Z,21.70
2023-04-17T04:45:54.068Z,20.00
2023-04-17T04:48:22.661Z,17.10
2023-04-17T04:50:50.784Z,20.30
2023-04-17T04:53:20.646Z,20.80
2023-04-17T04:55:55.808Z,20.50
2023-04-17T04:58:24.623Z,22.50
2023-04-17T05:00:53.285Z,21.50
2023-04-17T05:03:27.203Z,20.30
2023-04-17T05:05:55.606Z,19.00
2023-04-17T05:08:25.779Z,20.50
2023-04-17T05:11:01.622Z,22.30
2023-04-17T05:13:30.501Z,19.10
2023-04-17T05:16:01.467Z,18.20
2023-04-17T05:18:30.499Z,21.60
2023-04-17T05:20:59.374Z,19.00
2023-04-17T05:23:30.480Z,19.90
2023-04-17T05:25:58.995Z,18.70
2023-04-17T05:28:27.464Z,21.20
2023-04-17T05:30:57.933Z,17.60
2023-04-17T05:33:32.057Z,18.00
2023-04-17T05:36:02.828Z,20.60
2023-04-17T05:38:32.195Z,16.30
2023-04-17T05:41:01.876Z,16.80
2023-04-17T05:43:30.105Z,16.80
2023-04-17T05:45:58.311Z,17.80
2023-04-17T05:48:26.553Z,16.40
2023-04-17T05:50:54.726Z,17.20
2023-04-17T05:53:24.243Z,15.80
2023-04-17T05:55:56.706Z,15.10
2023-04-17T05:58:25.765Z,15.70
2023-04-17T06:00:58.455Z,18.30
2023-04-17T06:03:28.086Z,18.30
2023-04-17T06:06:05.724Z,17.30
2023-04-17T06:08:34.441Z,17.60
2023-04-17T06:11:02.519Z,17.40
2023-04-17T06:13:31.282Z,20.30
2023-04-17T06:16:00.008Z,18.90
2023-04-17T06:18:28.377Z,16.90
2023-04-17T06:20:56.519Z,15.90
2023-04-17T06:23:25.455Z,14.50
2023-04-17T06:25:53.583Z,16.10
2023-04-17T06:28:21.651Z,15.80
2023-04-17T06:30:51.910Z,16.00
2023-04-17T06:33:20.603Z,14.10
2023-04-17T06:35:48.805Z,16.00
2023-04-17T06:38:39.506Z,15.90
2023-04-17T06:41:07.974Z,15.80
2023-04-17T06:43:36.930Z,15.70
2023-04-17T06:46:13.879Z,15.20
2023-04-17T06:48:42.195Z,17.50
2023-04-17T06:51:10.684Z,14.60
2023-04-17T06:53:38.919Z,15.20
2023-04-17T06:56:07.130Z,19.50
2023-04-17T06:58:42.512Z,16.40
2023-04-17T07:01:11.910Z,18.10
2023-04-17T07:03:41.104Z,20.30
2023-04-17T07:06:09.805Z,17.90
2023-04-17T07:08:39.287Z,19.50
2023-04-17T07:11:07.641Z,19.80
2023-04-17T07:13:35.741Z,22.60
2023-04-17T07:16:06.384Z,17.80
2023-04-17T07:18:34.963Z,18.50
2023-04-17T07:21:03.286Z,20.70
2023-04-17T07:23:31.899Z,22.40
2023-04-17T07:26:00.143Z,17.90
2023-04-17T07:28:28.207Z,20.20
2023-04-17T07:30:58.274Z,19.70
2023-04-17T07:33:26.787Z,19.30
2023-04-17T07:35:55.114Z,20.00
2023-04-17T07:38:23.686Z,19.20
2023-04-17T07:40:51.962Z,19.90
2023-04-17T07:43:20.260Z,20.50
2023-04-17T07:45:49.243Z,20.20
2023-04-17T07:48:18.903Z,18.80
2023-04-17T07:50:47.154Z,19.60
2023-04-17T07:53:15.349Z,20.00
2023-04-17T07:55:43.465Z,16.70
2023-04-17T07:58:11.689Z,17.60
2023-04-17T08:00:43.727Z,16.90
2023-04-17T08:03:14.659Z,17.60
2023-04-17T08:05:43.326Z,19.50
2023-04-17T08:08:11.414Z,18.50
2023-04-17T08:10:39.796Z,17.60
2023-04-17T08:13:07.956Z,17.90
2023-04-17T08:15:41.160Z,18.50
2023-04-17T08:18:10.189Z,17.70
2023-04-17T08:20:38.425Z,16.90
2023-04-17T08:23:07.315Z,15.20
2023-04-17T08:25:35.510Z,17.30
2023-04-17T08:28:03.851Z,15.10
2023-04-17T08:30:32.416Z,16.20
2023-04-17T08:33:01.009Z,19.40
2023-04-17T08:35:29.224Z,14.90
2023-04-17T08:37:59.186Z,16.70
2023-04-17T08:40:27.422Z,14.40
2023-04-17T08:42:55.809Z,17.40
2023-04-17T08:45:24.795Z,17.70
2023-04-17T08:47:53.226Z,16.80
2023-04-17T08:50:22.285Z,16.90
2023-04-17T08:52:52.753Z,17.20
2023-04-17T08:55:25.543Z,16.30
2023-04-17T09:00:31.535Z,17.90
2023-04-17T09:03:02.194Z,17.40
2023-04-17T09:05:35.202Z,22.70
2023-04-17T09:08:12.583Z,19.60
2023-04-17T09:10:43.308Z,17.70
2023-04-17T09:13:14.784Z,16.70
2023-04-17T09:15:44.766Z,19.00
2023-04-17T09:18:32.425Z,18.60
2023-04-17T09:21:02.176Z,17.80
2023-04-17T09:23:32.215Z,18.60
2023-04-17T09:26:14.653Z,16.30
2023-04-17T09:31:30.629Z,17.10
2023-04-17T09:34:01.146Z,17.70
2023-04-17T09:36:31.666Z,17.80
2023-04-17T09:39:03.638Z,17.90
2023-04-17T09:41:39.552Z,19.20
2023-04-17T09:44:08.134Z,20.00
2023-04-17T09:46:43.040Z,20.70
2023-04-17T09:49:30.347Z,18.10
2023-04-17T09:51:59.192Z,19.10
2023-04-17T09:54:31.676Z,17.50
2023-04-17T09:57:03.927Z,18.50
2023-04-17T10:02:02.108Z,17.40
2023-04-17T10:04:30.956Z,18.00
2023-04-17T10:07:00.786Z,20.60
2023-04-17T10:09:28.851Z,20.30
2023-04-17T10:11:58.519Z,18.50
2023-04-17T10:14:30.154Z,19.00
2023-04-17T10:16:58.618Z,24.10
2023-04-17T10:19:33.066Z,20.70
2023-04-17T10:22:19.618Z,24.80
2023-04-17T10:24:52.788Z,22.10
2023-04-17T10:27:27.596Z,23.20
2023-04-17T10:30:01.649Z,21.40
2023-04-17T10:32:31.669Z,22.70
2023-04-17T10:35:01.944Z,21.80
2023-04-17T10:37:48.978Z,25.00
2023-04-17T10:40:22.258Z,21.90
2023-04-17T10:43:03.637Z,21.30
2023-04-17T10:46:04.412Z,21.50
2023-04-17T10:48:39.075Z,24.40
2023-04-17T10:51:29.163Z,20.50
2023-04-17T10:54:01.860Z,21.10
2023-04-17T10:56:35.901Z,20.10
2023-04-17T10:59:05.393Z,20.60
2023-04-17T11:01:49.169Z,19.90
2023-04-17T11:04:27.336Z,18.20
2023-04-17T11:06:55.908Z,18.60
2023-04-17T11:09:27.513Z,17.70
2023-04-17T11:11:59.256Z,19.10
2023-04-17T11:14:28.221Z,19.90
2023-04-17T11:16:56.705Z,20.10
2023-04-17T11:19:26.341Z,20.90
2023-04-17T11:22:01.321Z,18.60
2023-04-17T11:24:31.345Z,22.20
2023-04-17T11:27:01.496Z,21.70
2023-04-17T11:29:29.732Z,20.50
2023-04-17T11:32:00.248Z,18.10
2023-04-17T11:34:28.705Z,20.70
2023-04-17T11:36:59.112Z,20.70
2023-04-17T11:39:34.691Z,20.30
2023-04-17T11:42:03.935Z,21.80
2023-04-17T11:44:32.241Z,19.80
2023-04-17T11:47:02.411Z,17.60
2023-04-17T11:49:32.801Z,19.10
2023-04-17T11:52:02.178Z,18.00
2023-04-17T11:54:32.320Z,20.80
2023-04-17T11:57:11.105Z,17.00
2023-04-17T11:59:42.245Z,17.60
2023-04-17T12:02:10.658Z,17.50
2023-04-17T12:04:40.108Z,18.50
2023-04-17T12:07:20.867Z,19.80
2023-04-17T12:09:56.742Z,19.30
2023-04-17T12:12:24.897Z,19.10
2023-04-17T12:14:53.326Z,20.00
2023-04-17T12:17:21.622Z,17.60
2023-04-17T12:19:50.500Z,18.70
2023-04-17T12:22:18.825Z,18.00
2023-04-17T12:24:46.847Z,18.70
2023-04-17T12:27:15.245Z,18.90
2023-04-17T12:29:44.982Z,21.60
2023-04-17T12:32:15.317Z,22.10
2023-04-17T12:34:43.910Z,22.60
2023-04-17T12:37:12.167Z,20.90
2023-04-17T12:39:40.524Z,22.00
2023-04-17T12:42:08.956Z,23.50
2023-04-17T12:44:37.207Z,19.60
2023-04-17T12:47:05.945Z,23.20
2023-04-17T12:49:34.113Z,19.90
2023-04-17T12:52:03.805Z,20.70
2023-04-17T12:54:33.223Z,21.20
2023-04-17T12:57:01.797Z,22.70
2023-04-17T12:59:30.438Z,19.90
2023-04-17T13:01:59.497Z,23.20
2023-04-17T13:04:28.043Z,19.40
2023-04-17T13:06:56.648Z,23.60
2023-04-17T13:09:25.442Z,21.50
2023-04-17T13:11:53.593Z,22.40
2023-04-17T13:14:22.075Z,22.40
2023-04-17T13:16:50.979Z,20.50
2023-04-17T13:19:20.311Z,19.90
2023-04-17T13:21:50.922Z,18.80
2023-04-17T13:24:18.944Z,21.00
2023-04-17T13:26:47.036Z,19.50
2023-04-17T13:29:17.110Z,21.10
2023-04-17T13:34:15.567Z,19.60
2023-04-17T13:36:45.095Z,21.40
2023-04-17T13:39:13.928Z,22.60
2023-04-17T13:41:42.394Z,18.70
2023-04-17T13:44:10.827Z,21.20
2023-04-17T13:46:39.307Z,20.30
2023-04-17T13:49:08.097Z,19.60
2023-04-17T13:51:36.420Z,19.30
2023-04-17T13:54:04.514Z,20.50
2023-04-17T13:56:32.650Z,19.40
2023-04-17T13:59:00.917Z,20.30
2023-04-17T14:01:29.012Z,23.20
2023-04-17T14:04:00.543Z,19.80
2023-04-17T14:06:30.044Z,18.70
2023-04-17T14:08:58.413Z,19.00
2023-04-17T14:11:26.691Z,19.60
2023-04-17T14:13:56.084Z,20.20
2023-04-17T14:16:24.672Z,22.30
2023-04-17T14:18:52.884Z,19.90
2023-04-17T14:21:22.119Z,20.80
2023-04-17T14:23:51.507Z,21.00
2023-04-17T14:26:19.572Z,17.30
2023-04-17T14:28:47.660Z,16.80
2023-04-17T14:31:16.056Z,19.00
2023-04-17T14:33:44.161Z,19.70
2023-04-17T14:36:12.480Z,21.60
2023-04-17T14:38:40.843Z,20.80
2023-04-17T14:41:08.943Z,20.70
2023-04-17T14:43:37.249Z,20.50
2023-04-17T14:46:05.453Z,19.30
2023-04-17T14:48:41.123Z,17.70
2023-04-17T14:53:45.782Z,20.50
2023-04-17T14:56:13.932Z,19.10
2023-04-17T14:58:42.106Z,22.00
2023-04-17T15:01:10.777Z,22.40
2023-04-17T15:03:38.941Z,21.60
2023-04-17T15:06:07.499Z,21.80
2023-04-17T15:08:35.744Z,21.40
2023-04-17T15:11:03.902Z,22.80
2023-04-17T15:13:32.250Z,20.70
2023-04-17T15:16:00.352Z,21.60
2023-04-17T15:18:28.410Z,24.90
2023-04-17T15:20:56.834Z,25.70
2023-04-17T15:23:29.724Z,27.50
2023-04-17T15:25:58.314Z,24.40
2023-04-17T15:28:26.382Z,23.60
2023-04-17T15:30:55.877Z,26.60
2023-04-17T15:33:24.441Z,26.20
2023-04-17T15:35:55.328Z,28.40
2023-04-17T15:38:23.948Z,22.60
2023-04-17T15:40:52.761Z,28.80
2023-04-17T15:43:21.002Z,21.70
2023-04-17T15:45:49.375Z,22.00
2023-04-17T15:48:18.510Z,18.60
2023-04-17T15:50:46.568Z,19.10
2023-04-17T15:53:14.630Z,24.60
2023-04-17T15:55:43.040Z,20.80
2023-04-17T15:58:11.134Z,23.20
2023-04-17T16:00:39.266Z,29.30
2023-04-17T16:03:08.110Z,25.10
2023-04-17T16:05:36.427Z,20.40
2023-04-17T16:08:04.572Z,19.90
2023-04-17T16:10:34.356Z,20.70
2023-04-17T16:13:02.488Z,22.80
2023-04-17T16:15:30.868Z,18.70
2023-04-17T16:17:59.141Z,19.20
2023-04-17T16:20:27.314Z,18.90
2023-04-17T16:22:56.261Z,19.60
2023-04-17T16:25:24.836Z,18.70
2023-04-17T16:27:52.944Z,17.50
2023-04-17T16:30:21.294Z,17.30
2023-04-17T16:32:50.437Z,15.30
2023-04-17T16:35:18.655Z,17.00
2023-04-17T16:37:47.203Z,16.90
2023-04-17T16:40:15.766Z,16.80
2023-04-17T16:42:44.539Z,25.60
2023-04-17T16:45:13.140Z,11.90
2023-04-17T16:47:41.764Z,19.00
2023-04-17T16:50:11.786Z,21.10
2023-04-17T16:52:41.172Z,15.10
2023-04-17T16:55:09.971Z,19.90
2023-04-17T16:57:40.158Z,21.70
2023-04-17T17:00:09.797Z,17.70
2023-04-17T17:02:38.449Z,14.90
2023-04-17T17:05:08.284Z,14.80
2023-04-17T17:07:36.554Z,18.50
2023-04-17T17:10:05.633Z,18.40
2023-04-17T17:12:33.709Z,17.40
2023-04-17T17:15:03.661Z,15.30
2023-04-17T17:17:32.589Z,15.90
2023-04-17T17:20:01.631Z,18.80
2023-04-17T17:22:29.752Z,17.70
2023-04-17T17:24:58.265Z,16.80
2023-04-17T17:27:26.361Z,16.30
2023-04-17T17:29:56.550Z,18.70
2023-04-17T17:32:26.044Z,13.60
2023-04-17T17:34:54.322Z,14.40
2023-04-17T17:37:22.600Z,15.20
2023-04-17T17:39:51.098Z,16.90
2023-04-17T17:42:19.121Z,16.60
2023-04-17T17:44:47.219Z,15.80
2023-04-17T17:47:15.612Z,18.00
2023-04-17T17:49:44.059Z,17.10
2023-04-17T17:52:12.229Z,18.70
2023-04-17T17:54:41.152Z,18.20
2023-04-17T17:57:09.492Z,16.60
2023-04-17T17:59:37.818Z,17.90
2023-04-17T18:02:06.831Z,17.40
2023-04-17T18:04:35.230Z,21.20
2023-04-17T18:07:03.797Z,20.60
2023-04-17T18:09:32.051Z,16.70
2023-04-17T18:12:00.209Z,18.70
2023-04-17T18:14:28.312Z,22.70
2023-04-17T18:16:57.181Z,21.90
2023-04-17T18:19:25.354Z,20.10
2023-04-17T18:21:53.430Z,16.00
2023-04-17T18:24:21.645Z,15.00
2023-04-17T18:26:49.964Z,19.70
2023-04-17T18:29:18.109Z,25.60
2023-04-17T18:31:46.971Z,28.10
2023-04-17T18:34:15.660Z,27.90
2023-04-17T18:36:43.812Z,31.70
2023-04-17T18:39:14.534Z,23.80
2023-04-17T18:41:42.972Z,23.00
2023-04-17T18:44:11.797Z,23.50
2023-04-17T18:46:41.537Z,23.20
2023-04-17T18:49:10.046Z,28.80
2023-04-17T18:51:38.560Z,27.10
2023-04-17T18:54:08.770Z,24.00
2023-04-17T18:56:37.064Z,23.40
2023-04-17T18:59:05.880Z,21.80
2023-04-17T19:01:34.761Z,25.20
2023-04-17T19:04:03.680Z,24.00
2023-04-17T19:06:32.221Z,25.30
2023-04-17T19:09:01.169Z,32.70
2023-04-17T19:11:29.787Z,28.40
2023-04-17T19:13:58.225Z,27.10
2023-04-17T19:16:26.538Z,41.50
2023-04-17T19:18:56.672Z,26.20
2023-04-17T19:21:25.041Z,26.10
2023-04-17T19:23:53.515Z,29.30
2023-04-17T19:26:21.640Z,26.70
2023-04-17T19:28:50.001Z,25.20
2023-04-17T19:31:18.289Z,29.70
2023-04-17T19:33:46.710Z,26.00
2023-04-17T19:36:15.304Z,31.00
2023-04-17T19:38:44.022Z,30.40
2023-04-17T19:41:20.183Z,29.70
2023-04-17T19:43:49.973Z,26.60
2023-04-17T19:46:19.811Z,29.00
2023-04-17T19:48:49.449Z,32.10
2023-04-17T19:51:18.286Z,27.40
2023-04-17T19:53:48.097Z,25.80
2023-04-17T19:56:16.470Z,23.70
2023-04-17T19:58:45.366Z,27.80
2023-04-17T20:01:13.464Z,27.20
2023-04-17T20:03:43.732Z,20.30
2023-04-17T20:06:14.033Z,21.30
2023-04-17T20:08:42.392Z,20.50
2023-04-17T20:11:12.284Z,23.20
2023-04-17T20:13:40.717Z,25.10
2023-04-17T20:16:09.101Z,31.10
2023-04-17T20:18:38.113Z,26.40
2023-04-17T20:21:06.743Z,29.80
2023-04-17T20:23:34.872Z,27.80
2023-04-17T20:26:03.452Z,26.80
2023-04-17T20:28:31.705Z,30.30
2023-04-17T20:31:00.004Z,29.10
2023-04-17T20:33:28.437Z,26.50
2023-04-17T20:35:56.656Z,28.10
2023-04-17T20:38:25.053Z,26.90
2023-04-17T20:40:53.422Z,29.30
2023-04-17T20:43:21.828Z,26.90
2023-04-17T20:45:50.192Z,24.40
2023-04-17T20:48:18.617Z,22.20
2023-04-17T20:50:47.106Z,23.10
2023-04-17T20:53:15.259Z,32.20
2023-04-17T20:55:43.366Z,25.70
2023-04-17T20:58:11.728Z,27.70
2023-04-17T21:00:54.025Z,23.40
2023-04-17T21:03:33.107Z,25.30
2023-04-17T21:06:01.404Z,27.60
2023-04-17T21:08:29.686Z,30.60
2023-04-17T21:10:58.005Z,27.00
2023-04-17T21:13:26.743Z,29.50
2023-04-17T21:15:54.913Z,27.20
2023-04-17T21:18:23.028Z,29.50
2023-04-17T21:20:51.262Z,28.20
2023-04-17T21:23:19.351Z,29.20
2023-04-17T21:25:47.695Z,26.90
2023-04-17T21:28:15.785Z,29.30
2023-04-17T21:30:44.347Z,33.40
2023-04-17T21:33:12.643Z,30.00
2023-04-17T21:35:40.712Z,31.60
2023-04-17T21:38:08.876Z,28.10
2023-04-17T21:40:37.291Z,28.40
2023-04-17T21:43:05.629Z,30.80
2023-04-17T21:45:33.920Z,29.50
2023-04-17T21:48:03.446Z,23.80
2023-04-17T21:50:31.713Z,33.50
2023-04-17T21:52:59.748Z,38.80
2023-04-17T21:55:27.839Z,31.30
2023-04-17T21:57:56.115Z,29.00
2023-04-17T22:00:24.215Z,27.30
2023-04-17T22:02:52.478Z,37.40
2023-04-17T22:05:20.953Z,30.20
2023-04-17T22:07:55.125Z,27.50
2023-04-17T22:10:24.325Z,24.40
2023-04-17T22:12:52.484Z,28.20
2023-04-17T22:15:20.620Z,29.00
2023-04-17T22:17:49.093Z,27.30
2023-04-17T22:20:17.159Z,30.60
2023-04-17T22:22:46.399Z,28.60
2023-04-17T22:25:14.684Z,32.40
2023-04-17T22:27:42.795Z,33.50
2023-04-17T22:30:11.160Z,40.50
2023-04-17T22:32:39.404Z,35.80
2023-04-17T22:35:08.413Z,31.40
2023-04-17T22:37:36.518Z,30.90
2023-04-17T22:40:05.230Z,26.20
2023-04-17T22:42:33.342Z,32.00
2023-04-17T22:45:01.466Z,21.20
2023-04-17T22:47:29.719Z,28.30
2023-04-17T22:49:59.125Z,26.40
2023-04-17T22:52:27.230Z,26.00
2023-04-17T22:54:55.793Z,28.80
2023-04-17T22:57:24.153Z,25.50
2023-04-17T22:59:52.232Z,25.30
2023-04-17T23:02:20.366Z,32.30
2023-04-17T23:05:45.301Z,32.00
2023-04-17T23:08:25.920Z,29.00
2023-04-17T23:10:59.800Z,27.90
2023-04-17T23:13:28.378Z,32.00
2023-04-17T23:15:56.587Z,27.10
2023-04-17T23:18:25.113Z,34.10
2023-04-17T23:20:53.433Z,28.90
2023-04-17T23:23:21.646Z,28.90
2023-04-17T23:25:49.841Z,29.10
2023-04-17T23:28:18.001Z,24.80
2023-04-17T23:30:46.412Z,30.50
2023-04-17T23:33:14.485Z,26.90
2023-04-17T23:35:42.569Z,26.10
2023-04-17T23:38:10.697Z,31.50
2023-04-17T23:40:38.857Z,28.10
2023-04-17T23:43:07.096Z,31.20
2023-04-17T23:45:35.436Z,25.20
2023-04-17T23:48:03.610Z,26.80
2023-04-17T23:50:32.078Z,28.10
2023-04-17T23:53:00.660Z,34.30
2023-04-17T23:55:28.726Z,27.80
2023-04-17T23:57:57.572Z,25.50
